createdAt,value
2018-02-23T00:01:46.498Z,49.28
2018-02-23T00:04:14.107Z,52.92
2018-02-23T00:06:41.699Z,48.00
2018-02-23T00:09:09.305Z,51.35
2018-02-23T00:11:36.894Z,58.08
2018-02-23T00:14:04.492Z,47.50
2018-02-23T00:16:32.085Z,57.78
2018-02-23T00:18:59.685Z,54.55
2018-02-23T00:21:27.288Z,55.17
2018-02-23T00:23:54.896Z,57.75
2018-02-23T00:26:22.505Z,54.35
2018-02-23T00:28:50.105Z,52.22
2018-02-23T00:31:17.704Z,52.53
2018-02-23T00:33:45.379Z,55.83
2018-02-23T00:36:12.987Z,57.40
2018-02-23T00:38:41.355Z,58.10
2018-02-23T00:41:08.939Z,55.80
2018-02-23T00:43:37.300Z,51.72
2018-02-23T00:46:04.890Z,59.97
2018-02-23T00:48:33.252Z,60.85
2018-02-23T00:51:00.857Z,59.08
2018-02-23T00:53:28.483Z,66.57
2018-02-23T00:55:56.080Z,55.22
2018-02-23T00:58:23.665Z,55.50
2018-02-23T01:00:51.255Z,57.38
2018-02-23T01:03:18.842Z,60.20
2018-02-23T01:05:46.430Z,60.03
2018-02-23T01:08:14.787Z,64.22
2018-02-23T01:10:42.370Z,60.75
2018-02-23T01:13:10.734Z,59.28
2018-02-23T01:15:38.318Z,65.43
2018-02-23T01:18:06.666Z,64.03
2018-02-23T01:20:34.247Z,57.42
2018-02-23T01:23:01.835Z,53.38
2018-02-23T01:25:30.187Z,70.32
2018-02-23T01:27:57.780Z,59.20
2018-02-23T01:30:26.130Z,52.90
2018-02-23T01:32:53.762Z,62.95
2018-02-23T01:35:21.346Z,62.03
2018-02-23T01:37:48.925Z,67.87
2018-02-23T01:40:16.530Z,57.10
2018-02-23T01:42:44.115Z,61.10
2018-02-23T01:45:11.701Z,58.03
2018-02-23T01:47:39.291Z,54.45
2018-02-23T01:50:06.879Z,62.22
2018-02-23T01:52:35.226Z,63.67
2018-02-23T01:55:02.810Z,58.78
2018-02-23T01:57:30.416Z,60.33
2018-02-23T01:59:58.019Z,53.25
2018-02-23T02:02:25.624Z,60.70
2018-02-23T02:04:53.979Z,66.80
2018-02-23T02:07:21.567Z,58.45
2018-02-23T02:09:49.973Z,52.83
2018-02-23T02:12:17.559Z,72.70
2018-02-23T02:14:45.202Z,53.97
2018-02-23T02:17:12.791Z,59.33
2018-02-23T02:19:40.385Z,67.47
2018-02-23T02:22:07.982Z,60.17
2018-02-23T02:24:36.335Z,51.35
2018-02-23T02:27:03.932Z,55.30
2018-02-23T02:29:31.522Z,66.45
2018-02-23T02:31:59.147Z,66.57
2018-02-23T02:34:27.501Z,63.25
2018-02-23T02:36:55.103Z,56.25
2018-02-23T02:39:23.459Z,65.82
2018-02-23T02:41:52.884Z,61.45
2018-02-23T02:44:21.247Z,57.08
2018-02-23T02:46:48.830Z,62.42
2018-02-23T02:49:17.180Z,63.63
2018-02-23T02:51:44.766Z,61.03
2018-02-23T02:54:12.351Z,62.80
2018-02-23T02:56:40.705Z,56.97
2018-02-23T02:59:08.290Z,73.80
2018-02-23T03:01:36.643Z,63.08
2018-02-23T03:04:04.230Z,55.95
2018-02-23T03:06:32.587Z,47.85
2018-02-23T03:09:00.174Z,63.25
2018-02-23T03:11:27.758Z,64.00
2018-02-23T03:13:56.110Z,52.55
2018-02-23T03:16:23.700Z,59.33
2018-02-23T03:18:52.054Z,56.85
2018-02-23T03:21:19.634Z,59.78
2018-02-23T03:23:47.222Z,57.72
2018-02-23T03:26:14.806Z,57.88
2018-02-23T03:28:42.402Z,55.47
2018-02-23T03:31:09.994Z,48.63
2018-02-23T03:33:38.394Z,58.45
2018-02-23T03:36:06.756Z,53.35
2018-02-23T03:38:35.111Z,63.47
2018-02-23T03:41:02.700Z,55.08
2018-02-23T03:43:31.059Z,53.70
2018-02-23T03:45:58.646Z,58.33
2018-02-23T03:48:26.230Z,59.42
2018-02-23T03:50:54.584Z,56.28
2018-02-23T03:53:22.171Z,55.28
2018-02-23T03:55:50.522Z,57.28
2018-02-23T03:58:18.106Z,49.17
2018-02-23T04:00:45.691Z,69.40
2018-02-23T04:03:13.283Z,55.25
2018-02-23T04:05:40.867Z,55.42
2018-02-23T04:08:08.459Z,64.12
2018-02-23T04:10:36.042Z,50.92
2018-02-23T04:13:04.394Z,59.38
2018-02-23T04:15:32.030Z,73.60
2018-02-23T04:17:59.609Z,62.97
2018-02-23T04:20:27.191Z,64.35
2018-02-23T04:22:54.783Z,69.82
2018-02-23T04:25:23.139Z,56.15
2018-02-23T04:27:50.726Z,65.45
2018-02-23T04:30:19.082Z,57.72
2018-02-23T04:32:46.670Z,67.15
2018-02-23T04:35:14.260Z,54.72
2018-02-23T04:37:41.859Z,58.35
2018-02-23T04:40:10.211Z,57.62
2018-02-23T04:42:37.794Z,58.63
2018-02-23T04:45:05.378Z,65.22
2018-02-23T04:47:32.962Z,55.97
2018-02-23T04:50:00.546Z,63.63
2018-02-23T04:52:28.901Z,62.50
2018-02-23T04:54:56.485Z,62.08
2018-02-23T04:57:24.071Z,60.17
2018-02-23T04:59:51.659Z,63.70
2018-02-23T05:02:19.270Z,68.03
2018-02-23T05:04:46.858Z,71.18
2018-02-23T05:07:15.207Z,63.63
2018-02-23T05:09:42.789Z,74.35
2018-02-23T05:12:10.370Z,59.47
2018-02-23T05:14:38.713Z,71.85
2018-02-23T05:17:06.311Z,71.72
2018-02-23T05:19:34.679Z,73.25
2018-02-23T05:22:02.289Z,70.22
2018-02-23T05:24:29.873Z,80.28
2018-02-23T05:26:57.458Z,67.30
2018-02-23T05:29:25.054Z,70.07
2018-02-23T05:31:53.411Z,64.90
2018-02-23T05:34:21.048Z,66.07
2018-02-23T05:36:48.641Z,81.70
2018-02-23T05:39:16.236Z,61.10
2018-02-23T05:41:44.587Z,74.07
2018-02-23T05:44:12.176Z,65.43
2018-02-23T05:46:40.530Z,64.00
2018-02-23T05:49:08.118Z,63.97
2018-02-23T05:51:36.468Z,74.37
2018-02-23T05:54:04.059Z,74.53
2018-02-23T05:56:31.649Z,80.65
2018-02-23T05:59:00.002Z,64.70
2018-02-23T06:01:27.590Z,70.47
2018-02-23T06:03:55.947Z,72.03
2018-02-23T06:06:23.539Z,80.20
2018-02-23T06:08:51.895Z,80.40
2018-02-23T06:11:19.482Z,94.65
2018-02-23T06:13:47.835Z,79.37
2018-02-23T06:16:21.039Z,67.90
2018-02-23T06:18:54.307Z,89.18
2018-02-23T06:21:21.942Z,73.47
2018-02-23T06:23:49.534Z,73.28
2018-02-23T06:26:17.123Z,78.97
2018-02-23T06:28:44.711Z,79.30
2018-02-23T06:31:13.062Z,103.25
2018-02-23T06:33:40.651Z,105.00
2018-02-23T06:36:08.999Z,91.95
2018-02-23T06:38:36.586Z,83.80
2018-02-23T06:41:04.675Z,79.90
2018-02-23T06:43:33.023Z,89.75
2018-02-23T06:46:00.606Z,86.07
2018-02-23T06:48:28.190Z,76.85
2018-02-23T06:50:56.548Z,91.63
2018-02-23T06:53:24.135Z,82.05
2018-02-23T06:55:52.488Z,90.15
2018-02-23T06:58:20.075Z,74.85
2018-02-23T07:00:48.426Z,77.87
2018-02-23T07:03:16.066Z,71.68
2018-02-23T07:05:43.659Z,91.30
2018-02-23T07:08:11.247Z,79.70
2018-02-23T07:10:38.839Z,81.55
2018-02-23T07:13:06.452Z,70.72
2018-02-23T07:15:34.039Z,70.55
2018-02-23T07:18:01.630Z,78.50
2018-02-23T07:20:29.222Z,74.32
2018-02-23T07:22:56.811Z,95.85
2018-02-23T07:25:25.170Z,82.78
2018-02-23T07:27:52.759Z,81.12
2018-02-23T07:30:20.359Z,81.05
2018-02-23T07:32:47.974Z,90.97
2018-02-23T07:35:15.560Z,79.25
2018-02-23T07:37:43.152Z,84.05
2018-02-23T07:40:11.511Z,83.12
2018-02-23T07:42:39.102Z,104.50
2018-02-23T07:45:07.483Z,132.55
2018-02-23T07:47:35.838Z,110.95
2018-02-23T07:50:03.450Z,87.22
2018-02-23T07:52:31.050Z,89.13
2018-02-23T07:54:58.659Z,95.68
2018-02-23T07:57:27.011Z,92.05
2018-02-23T07:59:54.610Z,92.68
2018-02-23T08:02:22.965Z,105.82
2018-02-23T08:04:50.557Z,80.72
2018-02-23T08:07:18.919Z,80.50
2018-02-23T08:09:46.503Z,86.53
2018-02-23T08:12:14.862Z,90.30
2018-02-23T08:14:42.480Z,86.68
2018-02-23T08:17:10.074Z,89.85
2018-02-23T08:19:37.663Z,84.43
2018-02-23T08:22:09.139Z,86.68
2018-02-23T08:24:36.847Z,86.37
2018-02-23T08:27:04.432Z,78.87
2018-02-23T08:29:32.064Z,79.37
2018-02-23T08:31:59.654Z,80.32
2018-02-23T08:34:27.382Z,71.15
2018-02-23T08:36:54.971Z,66.60
2018-02-23T08:39:22.555Z,83.87
2018-02-23T08:41:50.143Z,81.03
2018-02-23T08:44:17.735Z,77.05
2018-02-23T08:46:45.350Z,77.53
2018-02-23T08:49:12.941Z,76.45
2018-02-23T08:51:40.531Z,78.18
2018-02-23T08:54:08.120Z,68.90
2018-02-23T08:56:35.716Z,66.97
2018-02-23T08:59:03.308Z,66.43
2018-02-23T09:01:31.680Z,72.85
2018-02-23T09:03:59.263Z,73.53
2018-02-23T09:06:27.621Z,66.22
2018-02-23T09:08:55.212Z,70.47
2018-02-23T09:11:23.610Z,70.37
2018-02-23T09:13:51.194Z,69.55
2018-02-23T09:16:18.787Z,71.03
2018-02-23T09:18:46.396Z,73.80
2018-02-23T09:21:14.055Z,68.03
2018-02-23T09:23:42.407Z,67.62
2018-02-23T09:26:10.044Z,69.22
2018-02-23T09:28:37.639Z,77.50
2018-02-23T09:31:05.558Z,80.72
2018-02-23T09:33:44.975Z,70.43
2018-02-23T09:36:13.325Z,76.97
2018-02-23T09:38:40.907Z,67.20
2018-02-23T09:41:08.494Z,73.40
2018-02-23T09:43:36.148Z,68.20
2018-02-23T09:46:04.495Z,73.80
2018-02-23T09:48:32.083Z,71.30
2018-02-23T09:50:59.671Z,71.60
2018-02-23T09:53:27.286Z,76.22
2018-02-23T09:55:54.902Z,87.05
2018-02-23T09:58:22.518Z,79.47
2018-02-23T10:00:50.103Z,78.90
2018-02-23T10:03:17.692Z,74.28
2018-02-23T10:05:46.926Z,80.90
2018-02-23T10:08:14.543Z,94.55
2018-02-23T10:10:42.130Z,106.20
2018-02-23T10:13:09.715Z,80.50
2018-02-23T10:15:37.302Z,98.37
2018-02-23T10:18:04.910Z,102.70
2018-02-23T10:20:33.258Z,93.75
2018-02-23T10:23:01.699Z,89.10
2018-02-23T10:25:29.291Z,96.22
2018-02-23T10:27:56.875Z,82.70
2018-02-23T10:30:24.464Z,79.25
2018-02-23T10:32:52.819Z,78.82
2018-02-23T10:35:20.418Z,74.75
2018-02-23T10:37:48.002Z,83.32
2018-02-23T10:40:16.200Z,83.15
2018-02-23T10:42:43.834Z,79.03
2018-02-23T10:45:12.250Z,78.93
2018-02-23T10:47:39.822Z,69.97
2018-02-23T10:50:07.412Z,77.05
2018-02-23T10:52:35.018Z,74.12
2018-02-23T10:55:02.616Z,74.15
2018-02-23T10:57:30.216Z,76.43
2018-02-23T10:59:57.835Z,69.85
2018-02-23T11:02:25.430Z,73.75
2018-02-23T11:04:53.123Z,78.62
2018-02-23T11:07:22.298Z,83.22
2018-02-23T11:09:49.894Z,76.97
2018-02-23T11:12:18.266Z,79.72
2018-02-23T11:14:45.856Z,66.47
2018-02-23T11:17:14.223Z,66.97
2018-02-23T11:19:42.590Z,72.30
2018-02-23T11:22:10.179Z,70.93
2018-02-23T11:24:38.753Z,71.70
2018-02-23T11:27:07.134Z,69.62
2018-02-23T11:29:34.724Z,76.10
2018-02-23T11:32:02.319Z,71.93
2018-02-23T11:34:29.970Z,72.72
2018-02-23T11:36:57.560Z,65.80
2018-02-23T11:39:25.143Z,77.72
2018-02-23T11:41:52.730Z,76.93
2018-02-23T11:44:21.142Z,67.97
2018-02-23T11:46:48.730Z,70.10
2018-02-23T11:49:16.317Z,63.28
2018-02-23T11:51:43.898Z,70.68
2018-02-23T11:54:11.486Z,60.90
2018-02-23T11:56:39.839Z,59.38
2018-02-23T11:59:07.427Z,56.80
2018-02-23T12:01:35.778Z,63.33
2018-02-23T12:04:03.383Z,73.95
2018-02-23T12:06:31.778Z,59.33
2018-02-23T12:08:59.362Z,56.10
2018-02-23T12:11:26.947Z,61.17
2018-02-23T12:13:54.530Z,98.65
2018-02-23T12:16:22.118Z,106.97
2018-02-23T12:18:50.475Z,85.25
2018-02-23T12:21:18.071Z,71.53
2018-02-23T12:23:45.667Z,62.38
2018-02-23T12:26:13.250Z,59.60
2018-02-23T12:28:40.841Z,69.93
2018-02-23T12:31:08.483Z,61.90
2018-02-23T12:33:36.067Z,58.78
2018-02-23T12:36:03.655Z,62.13
2018-02-23T12:38:32.002Z,58.87
2018-02-23T12:40:59.591Z,58.00
2018-02-23T12:43:28.828Z,59.47
2018-02-23T12:45:56.407Z,56.33
2018-02-23T12:48:24.000Z,50.63
2018-02-23T12:50:51.613Z,57.15
2018-02-23T12:53:19.200Z,58.65
2018-02-23T12:55:46.789Z,54.85
2018-02-23T12:58:14.383Z,52.80
2018-02-23T13:00:42.774Z,49.65
2018-02-23T13:03:11.132Z,50.15
2018-02-23T13:05:38.722Z,48.87
2018-02-23T13:08:07.074Z,54.58
2018-02-23T13:10:34.667Z,44.72
2018-02-23T13:13:03.103Z,52.92
2018-02-23T13:15:30.696Z,52.78
2018-02-23T13:17:58.278Z,53.15
2018-02-23T13:20:26.633Z,55.10
2018-02-23T13:22:54.223Z,56.37
2018-02-23T13:25:21.830Z,56.42
2018-02-23T13:27:55.146Z,53.40
2018-02-23T13:30:22.732Z,53.50
2018-02-23T13:32:50.340Z,62.53
2018-02-23T13:35:17.950Z,57.92
2018-02-23T13:37:45.540Z,66.65
2018-02-23T13:40:13.908Z,121.18
2018-02-23T13:42:41.548Z,80.55
2018-02-23T13:45:09.156Z,67.25
2018-02-23T13:47:37.508Z,56.78
2018-02-23T13:50:05.115Z,80.30
2018-02-23T13:52:33.519Z,59.20
2018-02-23T13:55:01.168Z,64.03
2018-02-23T13:57:29.515Z,55.75
2018-02-23T13:59:57.102Z,73.68
2018-02-23T14:02:25.458Z,61.72
2018-02-23T14:04:53.047Z,62.62
2018-02-23T14:07:27.002Z,61.83
2018-02-23T14:09:54.610Z,65.10
2018-02-23T14:12:22.212Z,61.97
2018-02-23T14:14:49.823Z,69.87
2018-02-23T14:17:17.431Z,66.65
2018-02-23T14:19:45.028Z,59.13
2018-02-23T14:22:12.620Z,55.05
2018-02-23T14:24:40.237Z,55.03
2018-02-23T14:27:07.839Z,74.97
2018-02-23T14:29:35.431Z,71.62
2018-02-23T14:32:03.020Z,60.58
2018-02-23T14:34:31.399Z,63.33
2018-02-23T14:36:59.750Z,63.95
2018-02-23T14:39:27.330Z,64.25
2018-02-23T14:41:54.918Z,67.37
2018-02-23T14:44:22.839Z,61.50
2018-02-23T14:46:50.428Z,66.62
2018-02-23T14:49:19.853Z,74.85
2018-02-23T14:51:48.202Z,66.72
2018-02-23T14:54:15.787Z,69.18
2018-02-23T14:56:44.138Z,61.90
2018-02-23T14:59:11.726Z,67.12
2018-02-23T15:01:39.314Z,65.87
2018-02-23T15:04:07.665Z,70.65
2018-02-23T15:06:35.250Z,70.43
2018-02-23T15:09:03.639Z,69.37
2018-02-23T15:11:32.043Z,75.22
2018-02-23T15:13:59.631Z,72.05
2018-02-23T15:16:27.209Z,65.95
2018-02-23T15:18:54.799Z,67.85
2018-02-23T15:21:22.386Z,57.83
2018-02-23T15:23:50.743Z,62.72
2018-02-23T15:26:18.343Z,62.97
2018-02-23T15:28:45.953Z,65.50
2018-02-23T15:31:25.402Z,71.07
2018-02-23T15:33:53.000Z,63.50
2018-02-23T15:36:21.372Z,62.78
2018-02-23T15:38:49.728Z,75.40
2018-02-23T15:41:17.314Z,64.40
2018-02-23T15:43:44.908Z,65.90
2018-02-23T15:46:12.499Z,63.30
2018-02-23T15:48:45.826Z,59.97
2018-02-23T15:51:19.018Z,72.60
2018-02-23T15:53:46.612Z,66.72
2018-02-23T15:56:14.963Z,72.35
2018-02-23T15:58:45.409Z,72.07
2018-02-23T16:01:13.007Z,72.87
2018-02-23T16:03:40.636Z,71.80
2018-02-23T16:06:08.238Z,68.50
2018-02-23T16:08:35.850Z,68.80
2018-02-23T16:11:04.128Z,66.22
2018-02-23T16:13:31.799Z,70.95
2018-02-23T16:15:59.396Z,64.78
2018-02-23T16:18:27.756Z,73.50
2018-02-23T16:20:55.358Z,66.95
2018-02-23T16:23:22.966Z,74.00
2018-02-23T16:25:50.560Z,73.00
2018-02-23T16:28:18.155Z,74.47
2018-02-23T16:30:45.759Z,66.50
2018-02-23T16:33:13.375Z,70.72
2018-02-23T16:35:40.967Z,71.12
2018-02-23T16:38:08.616Z,74.60
2018-02-23T16:40:36.214Z,76.57
2018-02-23T16:43:03.823Z,71.87
2018-02-23T16:45:32.187Z,70.30
2018-02-23T16:47:59.776Z,70.85
2018-02-23T16:50:28.135Z,74.70
2018-02-23T16:52:55.787Z,92.28
2018-02-23T16:55:23.391Z,76.45
2018-02-23T16:57:51.743Z,73.75
2018-02-23T17:00:19.374Z,77.62
2018-02-23T17:02:46.957Z,77.00
2018-02-23T17:05:14.545Z,76.22
2018-02-23T17:07:42.143Z,75.65
2018-02-23T17:10:09.738Z,73.37
2018-02-23T17:12:37.332Z,76.85
2018-02-23T17:15:04.922Z,78.28
2018-02-23T17:17:33.274Z,74.57
2018-02-23T17:20:00.865Z,71.45
2018-02-23T17:22:29.232Z,74.50
2018-02-23T17:24:56.839Z,75.18
2018-02-23T17:27:24.438Z,64.43
2018-02-23T17:29:52.019Z,83.18
2018-02-23T17:32:19.647Z,70.25
2018-02-23T17:34:47.281Z,70.40
2018-02-23T17:37:14.847Z,74.55
2018-02-23T17:39:43.218Z,77.47
2018-02-23T17:42:11.570Z,68.72
2018-02-23T17:44:39.200Z,68.85
2018-02-23T17:47:06.782Z,73.87
2018-02-23T17:49:34.375Z,60.72
2018-02-23T17:52:01.987Z,61.63
2018-02-23T17:54:29.595Z,66.40
2018-02-23T17:56:57.210Z,67.32
2018-02-23T17:59:24.803Z,65.95
2018-02-23T18:01:52.399Z,58.22
2018-02-23T18:04:20.001Z,68.75
2018-02-23T18:06:48.390Z,69.53
2018-02-23T18:09:15.987Z,61.20
2018-02-23T18:11:43.576Z,66.82
2018-02-23T18:14:11.162Z,66.82
2018-02-23T18:16:39.528Z,61.30
2018-02-23T18:19:07.166Z,68.60
2018-02-23T18:21:34.767Z,64.03
2018-02-23T18:24:02.374Z,75.15
2018-02-23T18:26:30.054Z,71.07
2018-02-23T18:28:57.644Z,71.40
2018-02-23T18:31:25.230Z,64.00
2018-02-23T18:33:52.818Z,67.03
2018-02-23T18:36:21.165Z,57.65
2018-02-23T18:38:48.771Z,61.70
2018-02-23T18:41:16.448Z,69.15
2018-02-23T18:43:44.036Z,60.63
2018-02-23T18:46:11.627Z,74.53
2018-02-23T18:48:39.219Z,57.97
2018-02-23T18:51:07.571Z,65.03
2018-02-23T18:53:35.166Z,66.20
2018-02-23T18:56:03.585Z,56.20
2018-02-23T18:58:31.179Z,62.97
2018-02-23T19:00:58.783Z,70.70
2018-02-23T19:03:27.140Z,71.82
2018-02-23T19:05:54.767Z,55.83
2018-02-23T19:08:22.382Z,61.00
2018-02-23T19:10:50.025Z,64.22
2018-02-23T19:13:17.631Z,66.25
2018-02-23T19:15:46.019Z,78.87
2018-02-23T19:18:13.607Z,69.35
2018-02-23T19:20:41.211Z,68.65
2018-02-23T19:23:08.802Z,65.40
2018-02-23T19:25:37.240Z,57.72
2018-02-23T19:28:04.880Z,65.95
2018-02-23T19:30:32.536Z,73.70
2018-02-23T19:33:00.201Z,67.20
2018-02-23T19:35:27.839Z,67.05
2018-02-23T19:37:55.458Z,81.00
2018-02-23T19:40:23.079Z,72.37
2018-02-23T19:42:51.435Z,71.82
2018-02-23T19:45:19.053Z,74.45
2018-02-23T19:47:46.662Z,67.45
2018-02-23T19:50:14.268Z,63.42
2018-02-23T19:52:42.626Z,69.85
2018-02-23T19:55:10.239Z,75.37
2018-02-23T19:57:37.826Z,76.85
2018-02-23T20:00:05.426Z,82.18
2018-02-23T20:02:33.022Z,70.25
2018-02-23T20:05:00.617Z,69.72
2018-02-23T20:07:28.213Z,70.18
2018-02-23T20:09:55.820Z,82.53
2018-02-23T20:12:23.465Z,80.32
2018-02-23T20:14:51.895Z,73.80
2018-02-23T20:17:19.486Z,80.90
2018-02-23T20:19:47.079Z,68.57
2018-02-23T20:22:15.435Z,76.07
2018-02-23T20:24:43.026Z,85.28
2018-02-23T20:27:10.615Z,84.07
2018-02-23T20:29:38.221Z,64.10
2018-02-23T20:32:05.817Z,63.60
2018-02-23T20:34:34.178Z,69.72
2018-02-23T20:37:01.766Z,72.70
2018-02-23T20:39:30.123Z,69.95
2018-02-23T20:41:57.707Z,77.75
2018-02-23T20:44:26.063Z,81.10
2018-02-23T20:46:53.655Z,70.10
2018-02-23T20:49:21.526Z,78.40
2018-02-23T20:51:49.885Z,71.43
2018-02-23T20:54:17.475Z,72.43
2018-02-23T20:56:45.831Z,69.15
2018-02-23T20:59:13.423Z,78.05
2018-02-23T21:01:41.848Z,70.07
2018-02-23T21:04:09.435Z,75.37
2018-02-23T21:06:37.059Z,84.03
2018-02-23T21:09:04.683Z,70.18
2018-02-23T21:11:32.318Z,73.85
2018-02-23T21:13:59.927Z,78.75
2018-02-23T21:16:28.283Z,83.12
2018-02-23T21:18:55.875Z,74.18
2018-02-23T21:21:24.230Z,74.00
2018-02-23T21:23:51.820Z,81.15
2018-02-23T21:26:19.414Z,71.22
2018-02-23T21:28:47.003Z,77.43
2018-02-23T21:31:14.587Z,79.45
2018-02-23T21:33:42.179Z,76.57
2018-02-23T21:36:09.763Z,78.90
2018-02-23T21:38:38.115Z,81.72
2018-02-23T21:41:05.703Z,79.82
2018-02-23T21:43:34.104Z,94.00
2018-02-23T21:46:01.699Z,80.78
2018-02-23T21:48:29.363Z,82.37
2018-02-23T21:50:56.947Z,75.72
2018-02-23T21:53:24.531Z,83.07
2018-02-23T21:55:52.114Z,92.12
2018-02-23T21:58:20.482Z,87.25
2018-02-23T22:00:48.835Z,83.10
2018-02-23T22:03:16.442Z,78.93
2018-02-23T22:05:44.798Z,84.50
2018-02-23T22:08:12.382Z,69.65
2018-02-23T22:10:40.798Z,76.53
2018-02-23T22:13:08.386Z,79.45
2018-02-23T22:15:35.975Z,71.30
2018-02-23T22:18:03.570Z,89.53
2018-02-23T22:20:31.914Z,76.72
2018-02-23T22:22:59.507Z,80.60
2018-02-23T22:25:27.863Z,75.57
2018-02-23T22:27:55.446Z,65.18
2018-02-23T22:30:23.803Z,75.82
2018-02-23T22:32:51.392Z,73.90
2018-02-23T22:35:18.975Z,68.90
2018-02-23T22:37:47.330Z,75.22
2018-02-23T22:40:14.918Z,82.28
2018-02-23T22:42:43.278Z,90.60
2018-02-23T22:45:10.864Z,78.85
2018-02-23T22:47:39.219Z,82.53
2018-02-23T22:50:06.835Z,86.53
2018-02-23T22:52:34.422Z,73.78
2018-02-23T22:55:02.014Z,72.10
2018-02-23T22:57:29.601Z,89.55
2018-02-23T22:59:57.186Z,69.25
2018-02-23T23:02:24.771Z,76.03
2018-02-23T23:04:52.363Z,80.68
2018-02-23T23:07:19.951Z,71.47
2018-02-23T23:09:48.301Z,72.97
2018-02-23T23:12:15.899Z,82.78
2018-02-23T23:14:43.487Z,69.18
2018-02-23T23:17:11.071Z,68.20
2018-02-23T23:19:38.667Z,76.80
2018-02-23T23:22:06.262Z,83.15
2018-02-23T23:24:34.614Z,69.53
2018-02-23T23:27:02.201Z,82.35
2018-02-23T23:29:29.797Z,81.10
2018-02-23T23:31:57.386Z,72.12
2018-02-23T23:34:24.992Z,80.82
2018-02-23T23:36:52.586Z,76.55
2018-02-23T23:39:20.970Z,78.10
2018-02-23T23:41:48.559Z,76.00
2018-02-23T23:44:16.138Z,70.70
2018-02-23T23:46:43.739Z,66.57
2018-02-23T23:49:11.371Z,75.35
2018-02-23T23:51:38.957Z,75.55
2018-02-23T23:54:06.547Z,83.05
2018-02-23T23:56:34.960Z,73.18
2018-02-23T23:59:02.547Z,76.15
